sensor_id;sensor_type;location;lat;lon;timestamp;pressure;altitude;pressure_sealevel;temperature;humidity
53960;BME280;39866;48.638;-2.020;2023-12-22T00:00:35;101974.63;;;15.11;100.00
53960;BME280;39866;48.638;-2.020;2023-12-22T00:03:00;101964.22;;;14.99;100.00
53960;BME280;39866;48.638;-2.020;2023-12-22T00:05:25;101977.31;;;15.09;100.00
53960;BME280;39866;48.638;-2.020;2023-12-22T00:07:51;101967.59;;;15.05;100.00
53960;BME280;39866;48.638;-2.020;2023-12-22T00:10:16;101949.69;;;15.06;100.00
53960;BME280;39866;48.638;-2.020;2023-12-22T00:12:41;101946.50;;;14.93;100.00
53960;BME280;39866;48.638;-2.020;2023-12-22T00:15:07;101951.91;;;14.92;100.00
53960;BME280;39866;48.638;-2.020;2023-12-22T00:17:32;101935.81;;;14.92;100.00
53960;BME280;39866;48.638;-2.020;2023-12-22T00:19:57;101947.50;;;14.89;100.00
53960;BME280;39866;48.638;-2.020;2023-12-22T00:22:27;101938.22;;;15.01;100.00
53960;BME280;39866;48.638;-2.020;2023-12-22T00:24:53;101940.13;;;14.97;100.00
53960;BME280;39866;48.638;-2.020;2023-12-22T00:27:18;101943.13;;;14.85;100.00
53960;BME280;39866;48.638;-2.020;2023-12-22T00:29:43;101967.06;;;14.93;100.00
53960;BME280;39866;48.638;-2.020;2023-12-22T00:32:08;101962.00;;;14.82;100.00
53960;BME280;39866;48.638;-2.020;2023-12-22T00:34:37;101962.09;;;14.77;100.00
53960;BME280;39866;48.638;-2.020;2023-12-22T00:37:02;101964.91;;;14.74;100.00
53960;BME280;39866;48.638;-2.020;2023-12-22T00:39:29;101964.03;;;14.74;100.00
53960;BME280;39866;48.638;-2.020;2023-12-22T00:41:54;101980.88;;;14.77;100.00
53960;BME280;39866;48.638;-2.020;2023-12-22T00:44:20;101978.78;;;14.89;100.00
53960;BME280;39866;48.638;-2.020;2023-12-22T00:46:45;101957.09;;;14.98;100.00
53960;BME280;39866;48.638;-2.020;2023-12-22T00:49:10;101974.28;;;14.91;100.00
53960;BME280;39866;48.638;-2.020;2023-12-22T00:51:35;101946.81;;;14.82;100.00
53960;BME280;39866;48.638;-2.020;2023-12-22T00:54:01;101951.09;;;14.88;100.00
53960;BME280;39866;48.638;-2.020;2023-12-22T00:56:26;101927.78;;;14.92;100.00
53960;BME280;39866;48.638;-2.020;2023-12-22T00:58:51;101958.06;;;14.95;100.00
53960;BME280;39866;48.638;-2.020;2023-12-22T01:01:16;101948.03;;;15.02;100.00
53960;BME280;39866;48.638;-2.020;2023-12-22T01:03:42;101961.28;;;15.08;100.00
53960;BME280;39866;48.638;-2.020;2023-12-22T01:06:07;101956.63;;;15.15;100.00
53960;BME280;39866;48.638;-2.020;2023-12-22T01:08:32;101953.06;;;15.14;100.00
53960;BME280;39866;48.638;-2.020;2023-12-22T01:10:57;101997.97;;;15.06;100.00
53960;BME280;39866;48.638;-2.020;2023-12-22T01:13:23;101960.34;;;15.09;100.00
53960;BME280;39866;48.638;-2.020;2023-12-22T01:15:48;101964.91;;;15.05;100.00
53960;BME280;39866;48.638;-2.020;2023-12-22T01:18:13;101963.25;;;15.01;100.00
53960;BME280;39866;48.638;-2.020;2023-12-22T01:20:38;101966.72;;;15.05;100.00
53960;BME280;39866;48.638;-2.020;2023-12-22T01:23:04;101975.97;;;14.95;100.00
53960;BME280;39866;48.638;-2.020;2023-12-22T01:25:29;101963.44;;;14.95;100.00
53960;BME280;39866;48.638;-2.020;2023-12-22T01:27:54;101953.38;;;15.02;100.00
53960;BME280;39866;48.638;-2.020;2023-12-22T01:30:19;101953.53;;;14.97;100.00
53960;BME280;39866;48.638;-2.020;2023-12-22T01:32:44;101975.09;;;14.93;100.00
53960;BME280;39866;48.638;-2.020;2023-12-22T01:35:10;101975.97;;;14.93;100.00
53960;BME280;39866;48.638;-2.020;2023-12-22T01:37:35;101970.41;;;15.01;100.00
53960;BME280;39866;48.638;-2.020;2023-12-22T01:40:01;101983.06;;;14.96;100.00
53960;BME280;39866;48.638;-2.020;2023-12-22T01:42:27;102007.00;;;15.03;100.00
53960;BME280;39866;48.638;-2.020;2023-12-22T01:44:52;101966.47;;;15.14;100.00
53960;BME280;39866;48.638;-2.020;2023-12-22T01:47:17;101966.38;;;15.17;100.00
53960;BME280;39866;48.638;-2.020;2023-12-22T01:49:42;101961.41;;;15.03;100.00
53960;BME280;39866;48.638;-2.020;2023-12-22T01:52:08;101967.66;;;15.04;100.00
53960;BME280;39866;48.638;-2.020;2023-12-22T01:54:33;101978.38;;;15.04;100.00
53960;BME280;39866;48.638;-2.020;2023-12-22T01:56:59;101973.69;;;15.12;100.00
53960;BME280;39866;48.638;-2.020;2023-12-22T01:59:24;101976.44;;;15.10;100.00
53960;BME280;39866;48.638;-2.020;2023-12-22T02:01:50;101990.78;;;15.08;100.00
53960;BME280;39866;48.638;-2.020;2023-12-22T02:04:15;101975.50;;;15.11;100.00
53960;BME280;39866;48.638;-2.020;2023-12-22T02:06:40;101991.66;;;15.08;100.00
53960;BME280;39866;48.638;-2.020;2023-12-22T02:09:07;101991.13;;;14.96;100.00
53960;BME280;39866;48.638;-2.020;2023-12-22T02:11:32;101982.34;;;14.91;100.00
53960;BME280;39866;48.638;-2.020;2023-12-22T02:13:58;101994.94;;;14.87;100.00
53960;BME280;39866;48.638;-2.020;2023-12-22T02:16:37;101975.50;;;14.77;100.00
53960;BME280;39866;48.638;-2.020;2023-12-22T02:19:09;101995.38;;;14.70;100.00
53960;BME280;39866;48.638;-2.020;2023-12-22T02:21:37;101996.25;;;14.71;100.00
53960;BME280;39866;48.638;-2.020;2023-12-22T02:24:22;101994.50;;;14.70;100.00
53960;BME280;39866;48.638;-2.020;2023-12-22T02:26:47;102024.25;;;14.59;100.00
53960;BME280;39866;48.638;-2.020;2023-12-22T02:29:13;102027.69;;;14.66;100.00
53960;BME280;39866;48.638;-2.020;2023-12-22T02:31:42;101996.66;;;14.55;100.00
53960;BME280;39866;48.638;-2.020;2023-12-22T02:34:11;102005.56;;;14.56;100.00
53960;BME280;39866;48.638;-2.020;2023-12-22T02:36:37;102012.66;;;14.57;100.00
53960;BME280;39866;48.638;-2.020;2023-12-22T02:39:04;101987.59;;;14.59;100.00
53960;BME280;39866;48.638;-2.020;2023-12-22T02:41:29;101999.13;;;14.63;100.00
53960;BME280;39866;48.638;-2.020;2023-12-22T02:43:54;101984.66;;;14.70;100.00
53960;BME280;39866;48.638;-2.020;2023-12-22T02:46:20;101979.44;;;14.64;100.00
53960;BME280;39866;48.638;-2.020;2023-12-22T02:48:45;101983.78;;;14.70;100.00
53960;BME280;39866;48.638;-2.020;2023-12-22T02:51:10;101987.28;;;14.72;100.00
53960;BME280;39866;48.638;-2.020;2023-12-22T02:53:35;101978.88;;;14.85;100.00
53960;BME280;39866;48.638;-2.020;2023-12-22T02:56:01;101988.03;;;14.78;100.00
53960;BME280;39866;48.638;-2.020;2023-12-22T02:58:27;101980.13;;;14.72;100.00
53960;BME280;39866;48.638;-2.020;2023-12-22T03:00:53;101999.97;;;14.65;100.00
53960;BME280;39866;48.638;-2.020;2023-12-22T03:03:18;101998.19;;;14.64;100.00
53960;BME280;39866;48.638;-2.020;2023-12-22T03:05:43;101990.09;;;14.67;100.00
53960;BME280;39866;48.638;-2.020;2023-12-22T03:08:08;101969.56;;;14.66;100.00
53960;BME280;39866;48.638;-2.020;2023-12-22T03:10:33;101965.34;;;14.56;100.00
53960;BME280;39866;48.638;-2.020;2023-12-22T03:12:59;101985.03;;;14.55;100.00
53960;BME280;39866;48.638;-2.020;2023-12-22T03:15:24;101966.34;;;14.53;100.00
53960;BME280;39866;48.638;-2.020;2023-12-22T03:17:49;101956.66;;;14.45;100.00
53960;BME280;39866;48.638;-2.020;2023-12-22T03:20:14;101975.53;;;14.42;100.00
53960;BME280;39866;48.638;-2.020;2023-12-22T03:22:39;101990.63;;;14.46;100.00
53960;BME280;39866;48.638;-2.020;2023-12-22T03:25:05;101955.91;;;14.41;100.00
53960;BME280;39866;48.638;-2.020;2023-12-22T03:27:30;101959.47;;;14.42;100.00
53960;BME280;39866;48.638;-2.020;2023-12-22T03:29:55;102000.34;;;14.48;100.00
53960;BME280;39866;48.638;-2.020;2023-12-22T03:32:20;101953.22;;;14.41;100.00
53960;BME280;39866;48.638;-2.020;2023-12-22T03:34:46;101946.38;;;14.29;100.00
53960;BME280;39866;48.638;-2.020;2023-12-22T03:37:11;101950.59;;;14.38;100.00
53960;BME280;39866;48.638;-2.020;2023-12-22T03:39:36;101973.00;;;14.35;100.00
53960;BME280;39866;48.638;-2.020;2023-12-22T03:42:01;101957.66;;;14.41;100.00
53960;BME280;39866;48.638;-2.020;2023-12-22T03:44:27;101993.63;;;14.32;100.00
53960;BME280;39866;48.638;-2.020;2023-12-22T03:46:52;101958.19;;;14.21;100.00
53960;BME280;39866;48.638;-2.020;2023-12-22T03:49:17;101955.66;;;14.15;100.00
53960;BME280;39866;48.638;-2.020;2023-12-22T03:51:44;101976.31;;;14.08;100.00
53960;BME280;39866;48.638;-2.020;2023-12-22T03:54:09;101975.13;;;14.21;100.00
53960;BME280;39866;48.638;-2.020;2023-12-22T03:56:35;101989.53;;;14.17;100.00
53960;BME280;39866;48.638;-2.020;2023-12-22T03:59:00;101967.47;;;14.06;100.00
53960;BME280;39866;48.638;-2.020;2023-12-22T04:01:25;101970.22;;;14.03;100.00
53960;BME280;39866;48.638;-2.020;2023-12-22T04:03:51;101981.78;;;14.03;100.00
53960;BME280;39866;48.638;-2.020;2023-12-22T04:06:16;101972.75;;;14.09;100.00
53960;BME280;39866;48.638;-2.020;2023-12-22T04:08:41;101997.63;;;14.14;100.00
53960;BME280;39866;48.638;-2.020;2023-12-22T04:11:06;101978.81;;;14.17;100.00
53960;BME280;39866;48.638;-2.020;2023-12-22T04:13:31;102006.41;;;14.21;100.00
53960;BME280;39866;48.638;-2.020;2023-12-22T04:15:57;101958.22;;;14.19;100.00
53960;BME280;39866;48.638;-2.020;2023-12-22T04:18:22;101960.81;;;14.22;100.00
53960;BME280;39866;48.638;-2.020;2023-12-22T04:20:47;101957.38;;;14.17;100.00
53960;BME280;39866;48.638;-2.020;2023-12-22T04:23:16;101961.75;;;14.21;100.00
53960;BME280;39866;48.638;-2.020;2023-12-22T04:25:41;101968.13;;;14.16;100.00
53960;BME280;39866;48.638;-2.020;2023-12-22T04:28:07;101997.91;;;14.02;100.00
53960;BME280;39866;48.638;-2.020;2023-12-22T04:30:32;101981.69;;;14.08;100.00
53960;BME280;39866;48.638;-2.020;2023-12-22T04:32:57;101965.91;;;13.96;100.00
53960;BME280;39866;48.638;-2.020;2023-12-22T04:35:22;101955.31;;;13.91;100.00
53960;BME280;39866;48.638;-2.020;2023-12-22T04:37:48;101961.69;;;13.85;100.00
53960;BME280;39866;48.638;-2.020;2023-12-22T04:40:13;101955.47;;;13.83;100.00
53960;BME280;39866;48.638;-2.020;2023-12-22T04:42:38;101960.66;;;13.93;100.00
53960;BME280;39866;48.638;-2.020;2023-12-22T04:45:03;101937.50;;;13.90;100.00
53960;BME280;39866;48.638;-2.020;2023-12-22T04:47:29;101972.94;;;14.00;100.00
53960;BME280;39866;48.638;-2.020;2023-12-22T04:49:54;101954.13;;;14.03;100.00
53960;BME280;39866;48.638;-2.020;2023-12-22T04:52:19;101955.69;;;14.13;100.00
53960;BME280;39866;48.638;-2.020;2023-12-22T04:54:44;101988.59;;;14.18;100.00
53960;BME280;39866;48.638;-2.020;2023-12-22T04:57:09;101966.19;;;14.22;100.00
53960;BME280;39866;48.638;-2.020;2023-12-22T04:59:35;101963.88;;;14.07;100.00
53960;BME280;39866;48.638;-2.020;2023-12-22T05:02:00;101966.00;;;13.93;100.00
53960;BME280;39866;48.638;-2.020;2023-12-22T05:04:25;101954.06;;;14.06;100.00
53960;BME280;39866;48.638;-2.020;2023-12-22T05:06:50;101959.19;;;14.15;100.00
53960;BME280;39866;48.638;-2.020;2023-12-22T05:09:16;101957.72;;;14.39;100.00
53960;BME280;39866;48.638;-2.020;2023-12-22T05:11:41;101957.25;;;14.22;100.00
53960;BME280;39866;48.638;-2.020;2023-12-22T05:14:06;101959.53;;;14.01;100.00
53960;BME280;39866;48.638;-2.020;2023-12-22T05:16:31;101969.50;;;13.96;100.00
53960;BME280;39866;48.638;-2.020;2023-12-22T05:18:57;101941.09;;;13.87;100.00
53960;BME280;39866;48.638;-2.020;2023-12-22T05:21:23;101939.34;;;13.88;100.00
53960;BME280;39866;48.638;-2.020;2023-12-22T05:23:48;101946.56;;;13.84;100.00
53960;BME280;39866;48.638;-2.020;2023-12-22T05:26:20;101946.28;;;13.97;100.00
53960;BME280;39866;48.638;-2.020;2023-12-22T05:28:45;101962.22;;;14.01;100.00
53960;BME280;39866;48.638;-2.020;2023-12-22T05:31:10;101954.91;;;14.08;100.00
53960;BME280;39866;48.638;-2.020;2023-12-22T05:33:36;101949.72;;;14.02;100.00
53960;BME280;39866;48.638;-2.020;2023-12-22T05:36:01;101935.41;;;14.03;100.00
53960;BME280;39866;48.638;-2.020;2023-12-22T05:38:26;101938.69;;;14.14;100.00
53960;BME280;39866;48.638;-2.020;2023-12-22T05:40:51;101966.31;;;14.16;100.00
53960;BME280;39866;48.638;-2.020;2023-12-22T05:43:17;101949.53;;;14.09;100.00
53960;BME280;39866;48.638;-2.020;2023-12-22T05:45:42;101948.53;;;14.13;100.00
53960;BME280;39866;48.638;-2.020;2023-12-22T05:48:07;101963.03;;;14.05;100.00
53960;BME280;39866;48.638;-2.020;2023-12-22T05:50:33;102014.63;;;14.13;100.00
53960;BME280;39866;48.638;-2.020;2023-12-22T05:52:58;101951.47;;;14.03;100.00
53960;BME280;39866;48.638;-2.020;2023-12-22T05:55:23;101970.22;;;14.03;100.00
53960;BME280;39866;48.638;-2.020;2023-12-22T05:57:48;101938.00;;;14.06;100.00
53960;BME280;39866;48.638;-2.020;2023-12-22T06:00:14;101953.16;;;14.07;100.00
53960;BME280;39866;48.638;-2.020;2023-12-22T06:02:40;101932.59;;;14.09;100.00
53960;BME280;39866;48.638;-2.020;2023-12-22T06:05:05;101949.25;;;14.20;100.00
53960;BME280;39866;48.638;-2.020;2023-12-22T06:07:31;101954.84;;;14.11;100.00
53960;BME280;39866;48.638;-2.020;2023-12-22T06:09:56;101933.72;;;13.99;100.00
53960;BME280;39866;48.638;-2.020;2023-12-22T06:12:22;101918.16;;;14.15;100.00
53960;BME280;39866;48.638;-2.020;2023-12-22T06:14:47;101943.38;;;14.06;100.00
53960;BME280;39866;48.638;-2.020;2023-12-22T06:17:12;101951.34;;;14.09;100.00
53960;BME280;39866;48.638;-2.020;2023-12-22T06:19:37;101950.41;;;14.10;100.00
53960;BME280;39866;48.638;-2.020;2023-12-22T06:22:03;101977.19;;;14.10;100.00
53960;BME280;39866;48.638;-2.020;2023-12-22T06:24:28;101948.78;;;14.04;100.00
53960;BME280;39866;48.638;-2.020;2023-12-22T06:26:53;101939.94;;;13.99;100.00
53960;BME280;39866;48.638;-2.020;2023-12-22T06:29:18;101956.81;;;14.03;100.00
53960;BME280;39866;48.638;-2.020;2023-12-22T06:31:44;101948.78;;;14.03;100.00
53960;BME280;39866;48.638;-2.020;2023-12-22T06:34:09;101950.53;;;14.04;100.00
53960;BME280;39866;48.638;-2.020;2023-12-22T06:36:34;101966.41;;;14.13;100.00
53960;BME280;39866;48.638;-2.020;2023-12-22T06:38:59;101979.38;;;13.93;100.00
53960;BME280;39866;48.638;-2.020;2023-12-22T06:41:26;101974.91;;;13.93;100.00
53960;BME280;39866;48.638;-2.020;2023-12-22T06:43:51;101982.16;;;13.88;100.00
53960;BME280;39866;48.638;-2.020;2023-12-22T06:46:19;101985.69;;;13.90;100.00
53960;BME280;39866;48.638;-2.020;2023-12-22T06:48:45;101982.88;;;13.95;100.00
53960;BME280;39866;48.638;-2.020;2023-12-22T06:51:43;101990.00;;;13.96;100.00
53960;BME280;39866;48.638;-2.020;2023-12-22T06:54:02;101997.03;;;14.00;100.00
53960;BME280;39866;48.638;-2.020;2023-12-22T06:56:29;101996.16;;;14.01;100.00
53960;BME280;39866;48.638;-2.020;2023-12-22T06:58:55;101978.41;;;13.95;100.00
53960;BME280;39866;48.638;-2.020;2023-12-22T07:01:34;101981.09;;;13.95;100.00
53960;BME280;39866;48.638;-2.020;2023-12-22T07:04:00;101962.34;;;13.95;100.00
53960;BME280;39866;48.638;-2.020;2023-12-22T07:06:26;101967.88;;;13.87;100.00
53960;BME280;39866;48.638;-2.020;2023-12-22T07:11:39;101982.78;;;14.01;100.00
53960;BME280;39866;48.638;-2.020;2023-12-22T07:14:04;101997.75;;;14.09;100.00
53960;BME280;39866;48.638;-2.020;2023-12-22T07:16:30;102003.97;;;14.10;100.00
53960;BME280;39866;48.638;-2.020;2023-12-22T07:18:55;102015.59;;;14.09;100.00
53960;BME280;39866;48.638;-2.020;2023-12-22T07:21:20;102020.09;;;14.07;100.00
53960;BME280;39866;48.638;-2.020;2023-12-22T07:23:46;101984.47;;;14.05;100.00
53960;BME280;39866;48.638;-2.020;2023-12-22T07:26:11;102002.41;;;14.00;100.00
53960;BME280;39866;48.638;-2.020;2023-12-22T07:28:36;102001.69;;;13.92;100.00
53960;BME280;39866;48.638;-2.020;2023-12-22T07:31:01;102003.72;;;13.82;100.00
53960;BME280;39866;48.638;-2.020;2023-12-22T07:33:27;101985.13;;;13.76;100.00
53960;BME280;39866;48.638;-2.020;2023-12-22T07:35:52;101982.34;;;13.80;100.00
53960;BME280;39866;48.638;-2.020;2023-12-22T07:38:17;101997.47;;;13.81;100.00
53960;BME280;39866;48.638;-2.020;2023-12-22T07:40:42;101977.16;;;13.73;100.00
53960;BME280;39866;48.638;-2.020;2023-12-22T07:43:07;101985.25;;;13.70;100.00
53960;BME280;39866;48.638;-2.020;2023-12-22T07:45:33;101975.34;;;13.73;100.00
53960;BME280;39866;48.638;-2.020;2023-12-22T07:47:59;101987.81;;;13.74;100.00
53960;BME280;39866;48.638;-2.020;2023-12-22T07:50:24;101986.09;;;13.72;100.00
53960;BME280;39866;48.638;-2.020;2023-12-22T07:52:49;101977.03;;;13.77;100.00
53960;BME280;39866;48.638;-2.020;2023-12-22T07:55:15;101998.31;;;13.83;100.00
53960;BME280;39866;48.638;-2.020;2023-12-22T07:57:40;101993.03;;;13.80;100.00
53960;BME280;39866;48.638;-2.020;2023-12-22T08:00:06;101996.56;;;13.82;100.00
53960;BME280;39866;48.638;-2.020;2023-12-22T08:02:31;102016.06;;;13.87;100.00
53960;BME280;39866;48.638;-2.020;2023-12-22T08:04:57;102028.28;;;14.01;100.00
53960;BME280;39866;48.638;-2.020;2023-12-22T08:07:22;102025.66;;;13.98;100.00
53960;BME280;39866;48.638;-2.020;2023-12-22T08:09:47;102049.78;;;13.98;100.00
53960;BME280;39866;48.638;-2.020;2023-12-22T08:12:12;102041.69;;;14.01;100.00
53960;BME280;39866;48.638;-2.020;2023-12-22T08:14:37;102078.34;;;13.97;100.00
53960;BME280;39866;48.638;-2.020;2023-12-22T08:17:03;102026.56;;;13.98;100.00
53960;BME280;39866;48.638;-2.020;2023-12-22T08:19:28;102038.06;;;14.02;100.00
53960;BME280;39866;48.638;-2.020;2023-12-22T08:21:53;102030.75;;;14.10;100.00
53960;BME280;39866;48.638;-2.020;2023-12-22T08:24:21;102055.06;;;14.01;100.00
53960;BME280;39866;48.638;-2.020;2023-12-22T08:26:47;102023.75;;;14.04;100.00
53960;BME280;39866;48.638;-2.020;2023-12-22T08:29:13;102017.56;;;14.01;100.00
53960;BME280;39866;48.638;-2.020;2023-12-22T08:31:38;102016.16;;;14.23;100.00
53960;BME280;39866;48.638;-2.020;2023-12-22T08:34:03;102020.84;;;14.13;100.00
53960;BME280;39866;48.638;-2.020;2023-12-22T08:36:29;102054.91;;;14.08;100.00
53960;BME280;39866;48.638;-2.020;2023-12-22T08:38:54;102034.53;;;14.00;100.00
53960;BME280;39866;48.638;-2.020;2023-12-22T08:41:19;102032.94;;;13.91;100.00
53960;BME280;39866;48.638;-2.020;2023-12-22T08:43:45;102052.28;;;14.04;100.00
53960;BME280;39866;48.638;-2.020;2023-12-22T08:46:10;102024.47;;;14.11;100.00
53960;BME280;39866;48.638;-2.020;2023-12-22T08:48:37;102017.31;;;14.11;100.00
53960;BME280;39866;48.638;-2.020;2023-12-22T08:51:02;102029.88;;;14.09;100.00
53960;BME280;39866;48.638;-2.020;2023-12-22T08:53:29;102045.72;;;14.19;100.00
53960;BME280;39866;48.638;-2.020;2023-12-22T08:55:58;102027.03;;;14.17;100.00
53960;BME280;39866;48.638;-2.020;2023-12-22T08:58:23;102025.94;;;14.24;100.00
53960;BME280;39866;48.638;-2.020;2023-12-22T09:00:49;102066.81;;;14.34;100.00
53960;BME280;39866;48.638;-2.020;2023-12-22T09:03:14;102049.00;;;14.31;100.00
53960;BME280;39866;48.638;-2.020;2023-12-22T09:05:39;102042.66;;;14.35;100.00
53960;BME280;39866;48.638;-2.020;2023-12-22T09:08:04;102049.03;;;14.30;100.00
53960;BME280;39866;48.638;-2.020;2023-12-22T09:10:30;102041.13;;;14.25;100.00
53960;BME280;39866;48.638;-2.020;2023-12-22T09:12:57;102056.09;;;14.32;100.00
53960;BME280;39866;48.638;-2.020;2023-12-22T09:15:22;102057.84;;;14.35;100.00
53960;BME280;39866;48.638;-2.020;2023-12-22T09:17:47;102062.38;;;14.31;100.00
53960;BME280;39866;48.638;-2.020;2023-12-22T09:20:13;102067.47;;;14.44;100.00
53960;BME280;39866;48.638;-2.020;2023-12-22T09:22:38;102095.88;;;14.52;100.00
53960;BME280;39866;48.638;-2.020;2023-12-22T09:25:03;102059.16;;;14.57;100.00
53960;BME280;39866;48.638;-2.020;2023-12-22T09:27:28;102069.06;;;14.54;100.00
53960;BME280;39866;48.638;-2.020;2023-12-22T09:29:56;102068.13;;;14.55;100.00
53960;BME280;39866;48.638;-2.020;2023-12-22T09:32:21;102068.00;;;14.59;100.00
53960;BME280;39866;48.638;-2.020;2023-12-22T09:34:46;102080.50;;;14.60;100.00
53960;BME280;39866;48.638;-2.020;2023-12-22T09:37:11;102069.81;;;14.59;100.00
53960;BME280;39866;48.638;-2.020;2023-12-22T09:39:36;102075.28;;;14.54;100.00
53960;BME280;39866;48.638;-2.020;2023-12-22T09:42:02;102081.38;;;14.61;100.00
53960;BME280;39866;48.638;-2.020;2023-12-22T09:44:27;102101.16;;;14.55;100.00
53960;BME280;39866;48.638;-2.020;2023-12-22T09:46:56;102105.69;;;14.53;100.00
53960;BME280;39866;48.638;-2.020;2023-12-22T09:49:22;102112.63;;;14.62;100.00
53960;BME280;39866;48.638;-2.020;2023-12-22T09:51:47;102081.47;;;14.58;100.00
53960;BME280;39866;48.638;-2.020;2023-12-22T09:54:14;102080.47;;;14.62;100.00
53960;BME280;39866;48.638;-2.020;2023-12-22T09:56:40;102085.84;;;14.62;100.00
53960;BME280;39866;48.638;-2.020;2023-12-22T09:59:11;102077.03;;;14.55;100.00
53960;BME280;39866;48.638;-2.020;2023-12-22T10:01:38;102076.09;;;14.58;100.00
53960;BME280;39866;48.638;-2.020;2023-12-22T10:04:04;102096.44;;;14.67;100.00
53960;BME280;39866;48.638;-2.020;2023-12-22T10:06:29;102084.22;;;14.55;100.00
53960;BME280;39866;48.638;-2.020;2023-12-22T10:08:55;102090.38;;;14.58;100.00
53960;BME280;39866;48.638;-2.020;2023-12-22T10:11:20;102102.97;;;14.55;100.00
53960;BME280;39866;48.638;-2.020;2023-12-22T10:13:46;102105.78;;;14.47;100.00
53960;BME280;39866;48.638;-2.020;2023-12-22T10:16:13;102100.66;;;14.36;100.00
53960;BME280;39866;48.638;-2.020;2023-12-22T10:18:39;102099.28;;;14.19;100.00
53960;BME280;39866;48.638;-2.020;2023-12-22T10:21:04;102111.75;;;14.21;100.00
53960;BME280;39866;48.638;-2.020;2023-12-22T10:23:29;102117.94;;;14.23;100.00
53960;BME280;39866;48.638;-2.020;2023-12-22T10:25:56;102101.00;;;14.23;100.00
53960;BME280;39866;48.638;-2.020;2023-12-22T10:28:23;102119.47;;;14.35;100.00
53960;BME280;39866;48.638;-2.020;2023-12-22T10:30:49;102146.31;;;14.32;100.00
53960;BME280;39866;48.638;-2.020;2023-12-22T10:33:15;102126.53;;;14.39;100.00
53960;BME280;39866;48.638;-2.020;2023-12-22T10:35:41;102132.66;;;14.44;100.00
53960;BME280;39866;48.638;-2.020;2023-12-22T10:38:06;102113.69;;;14.55;100.00
53960;BME280;39866;48.638;-2.020;2023-12-22T10:40:31;102118.25;;;14.51;100.00
53960;BME280;39866;48.638;-2.020;2023-12-22T10:42:57;102097.44;;;14.61;100.00
53960;BME280;39866;48.638;-2.020;2023-12-22T10:45:23;102106.06;;;14.75;100.00
53960;BME280;39866;48.638;-2.020;2023-12-22T10:47:49;102104.38;;;14.71;100.00
53960;BME280;39866;48.638;-2.020;2023-12-22T10:50:15;102096.91;;;14.84;100.00
53960;BME280;39866;48.638;-2.020;2023-12-22T10:52:48;102094.47;;;14.73;100.00
53960;BME280;39866;48.638;-2.020;2023-12-22T10:55:15;102104.66;;;14.59;100.00
53960;BME280;39866;48.638;-2.020;2023-12-22T10:57:40;102117.53;;;14.42;100.00
53960;BME280;39866;48.638;-2.020;2023-12-22T11:00:05;102121.38;;;14.28;100.00
53960;BME280;39866;48.638;-2.020;2023-12-22T11:02:33;102114.59;;;14.12;100.00
53960;BME280;39866;48.638;-2.020;2023-12-22T11:07:29;102117.66;;;13.95;100.00
53960;BME280;39866;48.638;-2.020;2023-12-22T11:09:57;102109.84;;;13.84;100.00
53960;BME280;39866;48.638;-2.020;2023-12-22T11:12:25;102110.44;;;13.99;100.00
53960;BME280;39866;48.638;-2.020;2023-12-22T11:14:50;102099.00;;;13.92;100.00
53960;BME280;39866;48.638;-2.020;2023-12-22T11:17:19;102116.56;;;14.04;100.00
53960;BME280;39866;48.638;-2.020;2023-12-22T11:19:45;102087.75;;;14.17;100.00
53960;BME280;39866;48.638;-2.020;2023-12-22T11:22:10;102087.53;;;14.26;100.00
53960;BME280;39866;48.638;-2.020;2023-12-22T11:24:37;102092.63;;;14.36;100.00
53960;BME280;39866;48.638;-2.020;2023-12-22T11:27:03;102086.56;;;14.30;100.00
53960;BME280;39866;48.638;-2.020;2023-12-22T11:29:29;102093.28;;;14.48;100.00
53960;BME280;39866;48.638;-2.020;2023-12-22T11:31:54;102083.25;;;14.57;100.00
53960;BME280;39866;48.638;-2.020;2023-12-22T11:34:23;102088.50;;;14.62;100.00
53960;BME280;39866;48.638;-2.020;2023-12-22T11:36:49;102084.59;;;14.75;100.00
53960;BME280;39866;48.638;-2.020;2023-12-22T11:39:15;102084.44;;;14.81;100.00
53960;BME280;39866;48.638;-2.020;2023-12-22T11:41:40;102086.13;;;14.85;100.00
53960;BME280;39866;48.638;-2.020;2023-12-22T11:44:06;102116.91;;;14.71;100.00
53960;BME280;39866;48.638;-2.020;2023-12-22T11:46:32;102097.00;;;14.41;100.00
53960;BME280;39866;48.638;-2.020;2023-12-22T11:48:59;102098.44;;;14.58;100.00
53960;BME280;39866;48.638;-2.020;2023-12-22T11:51:24;102098.84;;;14.77;100.00
53960;BME280;39866;48.638;-2.020;2023-12-22T11:53:55;102099.94;;;14.70;100.00
53960;BME280;39866;48.638;-2.020;2023-12-22T11:56:21;102097.69;;;14.52;100.00
53960;BME280;39866;48.638;-2.020;2023-12-22T11:58:47;102096.75;;;14.53;100.00
53960;BME280;39866;48.638;-2.020;2023-12-22T12:01:20;102087.63;;;14.61;100.00
53960;BME280;39866;48.638;-2.020;2023-12-22T12:03:58;102090.50;;;14.52;100.00
53960;BME280;39866;48.638;-2.020;2023-12-22T12:08:53;102085.13;;;14.54;100.00
53960;BME280;39866;48.638;-2.020;2023-12-22T12:11:19;102083.44;;;14.50;100.00
53960;BME280;39866;48.638;-2.020;2023-12-22T12:13:44;102082.81;;;14.37;100.00
53960;BME280;39866;48.638;-2.020;2023-12-22T12:16:13;102091.22;;;14.20;100.00
53960;BME280;39866;48.638;-2.020;2023-12-22T12:18:39;102083.97;;;14.25;100.00
53960;BME280;39866;48.638;-2.020;2023-12-22T12:21:05;102085.38;;;14.42;100.00
53960;BME280;39866;48.638;-2.020;2023-12-22T12:23:31;102066.13;;;14.24;100.00
53960;BME280;39866;48.638;-2.020;2023-12-22T12:25:56;102073.84;;;14.38;100.00
53960;BME280;39866;48.638;-2.020;2023-12-22T12:28:25;102064.00;;;14.38;100.00
53960;BME280;39866;48.638;-2.020;2023-12-22T12:30:54;102086.66;;;14.24;100.00